Galahad, Canada
Current Conditions -  °F | °C
As of 2:00 PM on Thursday 23 Oct 2014 (Local Time) from CYQF Reporting Station
Broken Clouds Broken Clouds  
Wind Chill: 63°   Ceiling: 18000
Heat Index: 63°   Visibility: 15mi
Dew Point: 32°   Wind: 16mph
Humidity: 32%   Direction: 210°SSW
Pressure: 29.49"   Gusts: 24mph
Location:  52.52°N, 111.92°W
Report Text: CYQF 232000Z 21014G21KT 15SM FEW070 BKN180 17/M00 A2949 RMK AC1AC5 AC TR SLP999 DENSITY ALT 4300FT
Loading
Personal Weather Stations






























Interactive Weather Map
Tropical Storm Tracking
New forecast layout! Learn more

10-Day Weather Forecast

Advertisements
Track Severe Weather on mobile